Time;durP1;ratioP1;P1;durP2;ratioP2;P2;SDS_P1;SDS_P2;PMS_P1;PMS_P2;Temp;Humidity;BMP_temperature;BMP_pressure;BME280_temperature;BME280_humidity;BME280_pressure;Samples;Min_cycle;Max_cycle;Signal;HPM_P1;HPM_P2
2024/03/27 00:01:48;;;;;;;7.22;3.13;;;;;;;;;;5031778;28;20094;-76
2024/03/27 00:04:14;;;;;;;7.18;3.67;;;;;;;;;;5033496;28;20048;-75
2024/03/27 00:06:40;;;;;;;6.78;3.72;;;;;;;;;;5032100;28;20025;-75
2024/03/27 00:09:08;;;;;;;9.90;3.17;;;;;;;;;;5032797;28;20028;-76
2024/03/27 00:11:34;;;;;;;7.00;3.40;;;;;;;;;;5032976;28;20080;-76
2024/03/27 00:14:00;;;;;;;9.98;4.97;;;;;;;;;;5033150;28;20024;-75
2024/03/27 00:16:26;;;;;;;9.23;3.67;;;;;;;;;;5031592;28;20104;-76
2024/03/27 00:18:52;;;;;;;8.63;4.03;;;;;;;;;;5032768;28;20101;-75
2024/03/27 00:21:18;;;;;;;7.43;3.15;;;;;;;;;;5031032;28;20049;-75
2024/03/27 00:23:44;;;;;;;8.30;3.97;;;;;;;;;;5031213;28;20029;-75
2024/03/27 00:26:10;;;;;;;12.80;4.53;;;;;;;;;;5032578;28;20017;-76
2024/03/27 00:28:37;;;;;;;6.47;2.90;;;;;;;;;;5032647;28;20512;-75
2024/03/27 00:31:04;;;;;;;6.97;3.63;;;;;;;;;;5031159;28;20413;-74
2024/03/27 00:33:30;;;;;;;7.55;3.50;;;;;;;;;;5032661;28;20025;-74
2024/03/27 00:35:57;;;;;;;8.55;4.47;;;;;;;;;;5032594;28;20021;-75
2024/03/27 00:38:24;;;;;;;6.75;3.58;;;;;;;;;;5030924;28;20025;-75
2024/03/27 00:40:50;;;;;;;10.50;4.63;;;;;;;;;;5032837;28;20029;-77
2024/03/27 00:43:16;;;;;;;8.75;4.05;;;;;;;;;;5030837;28;20037;-76
2024/03/27 00:45:42;;;;;;;7.15;3.90;;;;;;;;;;5030899;28;20561;-76
2024/03/27 00:48:09;;;;;;;9.20;4.78;;;;;;;;;;5030866;28;20377;-77
2024/03/27 00:50:35;;;;;;;7.63;4.10;;;;;;;;;;5031141;28;20029;-75
2024/03/27 00:53:01;;;;;;;8.23;4.55;;;;;;;;;;5031233;28;20520;-74
2024/03/27 00:55:27;;;;;;;9.23;4.40;;;;;;;;;;5031122;28;20385;-76
2024/03/27 00:57:53;;;;;;;11.82;4.65;;;;;;;;;;5032478;28;20029;-76
2024/03/27 01:00:19;;;;;;;7.20;4.30;;;;;;;;;;5032298;28;20032;-77
2024/03/27 01:02:47;;;;;;;7.00;3.38;;;;;;;;;;5032032;28;20461;-76
2024/03/27 01:05:13;;;;;;;9.70;3.47;;;;;;;;;;5030816;28;20029;-75
2024/03/27 01:07:39;;;;;;;11.98;4.80;;;;;;;;;;5030090;28;20440;-74
2024/03/27 01:10:06;;;;;;;6.90;4.22;;;;;;;;;;5031799;28;20523;-76
2024/03/27 01:12:32;;;;;;;11.07;5.07;;;;;;;;;;5032193;28;20036;-76
2024/03/27 01:14:58;;;;;;;8.18;4.72;;;;;;;;;;5030998;28;20037;-76
2024/03/27 01:17:24;;;;;;;7.97;4.40;;;;;;;;;;5030573;28;20112;-76
2024/03/27 01:19:50;;;;;;;15.02;6.25;;;;;;;;;;5031705;28;20450;-76
2024/03/27 01:22:17;;;;;;;8.38;4.70;;;;;;;;;;5030487;28;20086;-76
2024/03/27 01:24:43;;;;;;;10.23;4.80;;;;;;;;;;5030636;28;20025;-77
2024/03/27 01:27:09;;;;;;;7.90;4.25;;;;;;;;;;5031899;28;20077;-76
2024/03/27 01:29:35;;;;;;;12.25;5.30;;;;;;;;;;5031999;28;20065;-76
2024/03/27 01:32:01;;;;;;;10.38;4.80;;;;;;;;;;5030863;28;20060;-77
2024/03/27 01:34:27;;;;;;;8.82;4.22;;;;;;;;;;5030494;28;20512;-77
2024/03/27 01:36:53;;;;;;;10.32;4.65;;;;;;;;;;5031991;28;20262;-76
2024/03/27 01:39:20;;;;;;;9.98;4.88;;;;;;;;;;5030553;28;20139;-76
2024/03/27 01:41:46;;;;;;;9.63;5.53;;;;;;;;;;5030663;28;20056;-76
2024/03/27 01:44:20;;;;;;;9.77;5.00;;;;;;;;;;5031414;28;20446;-76
2024/03/27 01:46:47;;;;;;;11.05;4.97;;;;;;;;;;5030396;28;20037;-75
2024/03/27 01:49:14;;;;;;;11.90;5.28;;;;;;;;;;5030274;28;20029;-76
2024/03/27 01:51:40;;;;;;;9.30;4.68;;;;;;;;;;5030473;28;20036;-75
2024/03/27 01:54:06;;;;;;;10.15;5.25;;;;;;;;;;5030217;28;20034;-76
2024/03/27 01:56:33;;;;;;;9.10;4.75;;;;;;;;;;5031460;28;20032;-76
2024/03/27 01:59:02;;;;;;;8.32;4.78;;;;;;;;;;5030349;28;20037;-77
2024/03/27 02:01:30;;;;;;;11.05;4.68;;;;;;;;;;5031116;28;20091;-76
2024/03/27 02:03:56;;;;;;;9.07;5.47;;;;;;;;;;5030362;28;20456;-76
2024/03/27 02:06:22;;;;;;;7.93;4.82;;;;;;;;;;5030094;28;20025;-76
2024/03/27 02:08:49;;;;;;;9.98;5.30;;;;;;;;;;5031371;28;20021;-76
2024/03/27 02:11:16;;;;;;;9.15;5.38;;;;;;;;;;5030098;28;20469;-76
2024/03/27 02:13:44;;;;;;;11.30;5.10;;;;;;;;;;5031705;28;20032;-77
2024/03/27 02:16:10;;;;;;;9.27;4.53;;;;;;;;;;5030131;28;20033;-76
2024/03/27 02:18:36;;;;;;;9.90;5.60;;;;;;;;;;5031552;28;20026;-76
2024/03/27 02:21:03;;;;;;;9.20;4.25;;;;;;;;;;5034932;28;20068;-75
2024/03/27 02:23:30;;;;;;;12.75;5.15;;;;;;;;;;5033765;28;20029;-74
2024/03/27 02:26:07;;;;;;;11.30;5.40;;;;;;;;;;5035244;28;20028;-75
2024/03/27 02:28:33;;;;;;;9.88;5.07;;;;;;;;;;5033847;28;20025;-75
2024/03/27 02:30:59;;;;;;;9.07;5.65;;;;;;;;;;5035484;28;20048;-75
2024/03/27 02:33:25;;;;;;;9.10;5.18;;;;;;;;;;5033631;28;20048;-75
2024/03/27 02:35:51;;;;;;;12.10;4.82;;;;;;;;;;5033742;28;20026;-75
2024/03/27 02:38:17;;;;;;;8.15;4.55;;;;;;;;;;5034832;28;20517;-74
2024/03/27 02:40:43;;;;;;;8.85;4.57;;;;;;;;;;5035229;28;20131;-75
2024/03/27 02:43:10;;;;;;;10.20;6.10;;;;;;;;;;5034681;28;20076;-75
2024/03/27 02:45:36;;;;;;;9.23;4.72;;;;;;;;;;5035232;28;20037;-75
2024/03/27 02:48:02;;;;;;;9.73;5.43;;;;;;;;;;5034523;28;20075;-75
2024/03/27 02:50:28;;;;;;;11.45;5.60;;;;;;;;;;5034827;28;20532;-76
2024/03/27 02:52:54;;;;;;;8.20;4.95;;;;;;;;;;5033246;28;20029;-76
2024/03/27 02:55:20;;;;;;;7.60;4.40;;;;;;;;;;5034231;28;20384;-75
2024/03/27 02:57:46;;;;;;;9.07;4.97;;;;;;;;;;5034805;28;20100;-76
2024/03/27 03:00:13;;;;;;;8.00;4.28;;;;;;;;;;5033084;28;20060;-75
2024/03/27 03:02:39;;;;;;;11.90;4.72;;;;;;;;;;5034655;28;20087;-75
2024/03/27 03:05:05;;;;;;;7.82;3.80;;;;;;;;;;5034530;28;20029;-76
2024/03/27 03:07:31;;;;;;;8.68;4.93;;;;;;;;;;5032980;28;20022;-75
2024/03/27 03:09:57;;;;;;;10.73;5.00;;;;;;;;;;5033141;28;20021;-76
2024/03/27 03:12:24;;;;;;;9.57;4.70;;;;;;;;;;5034210;28;20033;-76
2024/03/27 03:14:50;;;;;;;8.93;4.03;;;;;;;;;;5032973;28;20047;-75
2024/03/27 03:17:16;;;;;;;12.95;4.93;;;;;;;;;;5033867;28;20484;-75
2024/03/27 03:19:42;;;;;;;8.10;4.25;;;;;;;;;;5032779;28;20029;-75
2024/03/27 03:22:08;;;;;;;10.48;5.32;;;;;;;;;;5032762;28;20084;-75
2024/03/27 03:24:34;;;;;;;6.32;3.70;;;;;;;;;;5032892;28;20021;-75
2024/03/27 03:27:00;;;;;;;8.82;4.40;;;;;;;;;;5034170;28;20495;-75
2024/03/27 03:29:26;;;;;;;11.13;4.90;;;;;;;;;;5033693;28;20544;-75
2024/03/27 03:31:53;;;;;;;13.15;5.60;;;;;;;;;;5033157;28;20460;-76
2024/03/27 03:34:18;;;;;;;9.25;3.97;;;;;;;;;;5032506;28;20129;-75
2024/03/27 03:36:44;;;;;;;8.23;4.00;;;;;;;;;;5032632;28;20060;-76
2024/03/27 03:39:11;;;;;;;8.52;4.07;;;;;;;;;;5034041;28;20033;-75
2024/03/27 03:41:37;;;;;;;7.82;4.10;;;;;;;;;;5032288;28;20037;-77
2024/03/27 03:44:03;;;;;;;9.48;3.90;;;;;;;;;;5032550;28;20033;-75
2024/03/27 03:46:29;;;;;;;5.47;2.65;;;;;;;;;;5032135;28;20022;-75
2024/03/27 03:48:54;;;;;;;7.78;4.28;;;;;;;;;;5032457;28;20026;-76
2024/03/27 03:51:21;;;;;;;5.95;3.63;;;;;;;;;;5031945;28;20462;-76
2024/03/27 03:53:47;;;;;;;9.55;4.22;;;;;;;;;;5032331;28;20018;-75
2024/03/27 03:56:13;;;;;;;8.88;4.65;;;;;;;;;;5033449;28;20199;-75
2024/03/27 03:58:39;;;;;;;8.07;3.92;;;;;;;;;;5032237;28;20030;-75
2024/03/27 04:01:06;;;;;;;11.40;4.22;;;;;;;;;;5031830;28;20037;-76
2024/03/27 04:03:32;;;;;;;7.22;3.72;;;;;;;;;;5031988;28;20026;-75
2024/03/27 04:06:02;;;;;;;9.23;4.90;;;;;;;;;;5032117;28;20480;-75
2024/03/27 04:08:28;;;;;;;10.00;3.80;;;;;;;;;;5031870;28;20021;-75
2024/03/27 04:10:54;;;;;;;7.80;3.83;;;;;;;;;;5033116;28;20457;-75
2024/03/27 04:13:20;;;;;;;6.75;3.70;;;;;;;;;;5032928;28;20488;-74
2024/03/27 04:15:46;;;;;;;8.95;4.03;;;;;;;;;;5031881;28;20042;-74
2024/03/27 04:18:12;;;;;;;11.15;4.00;;;;;;;;;;5031668;28;20026;-75
2024/03/27 04:20:41;;;;;;;9.38;5.07;;;;;;;;;;5031558;28;20093;-76
2024/03/27 04:23:07;;;;;;;8.25;4.20;;;;;;;;;;5031753;28;20087;-75
2024/03/27 04:25:33;;;;;;;8.75;4.00;;;;;;;;;;5031460;28;20030;-75
2024/03/27 04:27:59;;;;;;;7.72;4.63;;;;;;;;;;5032799;28;20028;-75
2024/03/27 04:30:26;;;;;;;11.25;4.47;;;;;;;;;;5032734;28;20018;-75
2024/03/27 04:32:53;;;;;;;11.98;4.10;;;;;;;;;;5032900;28;20055;-74
2024/03/27 04:35:19;;;;;;;6.85;3.58;;;;;;;;;;5032659;28;20022;-75
2024/03/27 04:37:46;;;;;;;13.40;5.55;;;;;;;;;;5031526;28;20072;-75
2024/03/27 04:40:12;;;;;;;7.72;3.80;;;;;;;;;;5032777;28;20030;-76
2024/03/27 04:42:38;;;;;;;8.13;4.20;;;;;;;;;;5030594;28;20124;-76
2024/03/27 04:45:05;;;;;;;8.40;4.25;;;;;;;;;;5031275;28;20028;-75
2024/03/27 04:47:34;;;;;;;9.90;5.13;;;;;;;;;;5030841;28;20466;-76
2024/03/27 04:50:01;;;;;;;6.20;3.33;;;;;;;;;;5031324;28;20461;-75
2024/03/27 04:52:27;;;;;;;14.35;5.28;;;;;;;;;;5032339;28;20032;-75
2024/03/27 04:54:53;;;;;;;11.95;5.15;;;;;;;;;;5032556;28;20104;-76
2024/03/27 04:57:19;;;;;;;8.45;4.05;;;;;;;;;;5031012;28;20056;-76
2024/03/27 04:59:45;;;;;;;7.60;4.13;;;;;;;;;;5032233;28;20021;-75
2024/03/27 05:02:11;;;;;;;12.32;4.70;;;;;;;;;;5032125;28;20485;-75
2024/03/27 05:04:37;;;;;;;15.15;5.45;;;;;;;;;;5030758;28;20088;-75
2024/03/27 05:07:03;;;;;;;10.05;3.97;;;;;;;;;;5032671;28;20113;-75
2024/03/27 05:09:35;;;;;;;11.30;5.43;;;;;;;;;;5030800;28;20018;-75
2024/03/27 05:12:02;;;;;;;9.52;5.03;;;;;;;;;;5031016;28;20370;-76
2024/03/27 05:14:29;;;;;;;8.93;5.15;;;;;;;;;;5030852;28;20374;-75
2024/03/27 05:16:56;;;;;;;11.95;5.53;;;;;;;;;;5032340;28;20049;-75
2024/03/27 05:19:23;;;;;;;9.00;5.03;;;;;;;;;;5030770;28;20022;-76
2024/03/27 05:21:49;;;;;;;8.60;4.40;;;;;;;;;;5030822;28;20045;-76
2024/03/27 05:24:15;;;;;;;6.05;3.17;;;;;;;;;;5032215;28;20021;-77
2024/03/27 05:26:41;;;;;;;9.57;3.88;;;;;;;;;;5030776;28;20071;-75
2024/03/27 05:29:07;;;;;;;9.07;3.72;;;;;;;;;;5031792;28;20053;-75
2024/03/27 05:31:33;;;;;;;6.75;2.97;;;;;;;;;;5030464;28;20461;-75
2024/03/27 05:33:59;;;;;;;10.23;4.03;;;;;;;;;;5030670;28;20033;-76
2024/03/27 05:36:25;;;;;;;5.90;3.00;;;;;;;;;;5031973;28;20520;-77
2024/03/27 05:38:51;;;;;;;5.75;2.92;;;;;;;;;;5031659;28;20026;-75
2024/03/27 05:41:17;;;;;;;7.57;3.53;;;;;;;;;;5030337;28;20076;-76
2024/03/27 05:43:43;;;;;;;7.63;3.75;;;;;;;;;;5031634;28;20067;-75
2024/03/27 05:46:09;;;;;;;10.88;3.30;;;;;;;;;;5030537;28;20022;-76
2024/03/27 05:48:35;;;;;;;7.07;3.35;;;;;;;;;;5030371;28;20095;-77
2024/03/27 05:51:01;;;;;;;6.90;3.10;;;;;;;;;;5032293;28;20052;-76
2024/03/27 05:53:27;;;;;;;4.88;2.63;;;;;;;;;;5030336;28;20454;-77
2024/03/27 05:55:57;;;;;;;6.00;3.60;;;;;;;;;;5033735;28;20026;-76
2024/03/27 05:58:23;;;;;;;6.43;3.60;;;;;;;;;;5034298;28;20441;-76
2024/03/27 06:00:49;;;;;;;6.18;3.20;;;;;;;;;;5035547;28;20100;-76
2024/03/27 06:03:15;;;;;;;5.90;2.88;;;;;;;;;;5034293;28;20029;-76
2024/03/27 06:05:42;;;;;;;4.57;2.78;;;;;;;;;;5048631;28;20392;-77
2024/03/27 06:08:08;;;;;;;6.70;3.60;;;;;;;;;;5055793;28;20028;-76
2024/03/27 06:10:34;;;;;;;5.35;3.03;;;;;;;;;;5053873;28;20060;-76
2024/03/27 06:13:04;;;;;;;7.70;3.80;;;;;;;;;;5055630;28;20028;-77
2024/03/27 06:15:30;;;;;;;5.07;3.20;;;;;;;;;;5055231;28;20461;-76
2024/03/27 06:17:56;;;;;;;6.40;3.33;;;;;;;;;;5054165;28;20083;-75
2024/03/27 06:20:23;;;;;;;5.20;3.28;;;;;;;;;;5054753;28;20444;-75
2024/03/27 06:22:50;;;;;;;8.35;4.32;;;;;;;;;;5053842;28;20436;-75
2024/03/27 06:25:16;;;;;;;5.72;3.42;;;;;;;;;;5055128;28;20431;-75
2024/03/27 06:27:42;;;;;;;6.03;3.75;;;;;;;;;;5054018;28;20083;-75
2024/03/27 06:30:09;;;;;;;6.43;4.28;;;;;;;;;;5053833;28;20029;-76
2024/03/27 06:32:36;;;;;;;6.50;4.60;;;;;;;;;;5053589;28;20035;-75
2024/03/27 06:35:03;;;;;;;7.10;4.88;;;;;;;;;;5053850;28;20400;-76
2024/03/27 06:37:30;;;;;;;8.38;4.93;;;;;;;;;;5053542;28;20444;-75
2024/03/27 06:39:56;;;;;;;10.05;4.57;;;;;;;;;;5055166;28;20059;-74
2024/03/27 06:42:22;;;;;;;8.45;5.82;;;;;;;;;;5054475;28;20028;-75
2024/03/27 06:44:49;;;;;;;7.75;5.28;;;;;;;;;;5054528;28;20017;-75
2024/03/27 06:47:15;;;;;;;8.27;5.68;;;;;;;;;;5054181;28;20369;-75
2024/03/27 06:49:41;;;;;;;8.63;6.20;;;;;;;;;;5054318;28;20473;-76
2024/03/27 06:52:07;;;;;;;8.68;6.63;;;;;;;;;;5053333;28;20040;-75
2024/03/27 06:54:33;;;;;;;11.15;6.72;;;;;;;;;;5054144;28;20047;-76
2024/03/27 06:56:59;;;;;;;9.77;7.20;;;;;;;;;;5053219;28;20484;-75
2024/03/27 06:59:25;;;;;;;6.85;4.53;;;;;;;;;;5054558;28;20035;-75
2024/03/27 07:01:51;;;;;;;10.75;7.30;;;;;;;;;;5054224;28;20060;-75
2024/03/27 07:04:17;;;;;;;15.45;10.25;;;;;;;;;;5054210;28;20434;-77
2024/03/27 07:06:43;;;;;;;16.50;11.60;;;;;;;;;;5052091;28;20079;-75
2024/03/27 07:09:09;;;;;;;16.20;10.70;;;;;;;;;;5054702;28;20078;-75
2024/03/27 07:11:35;;;;;;;16.65;11.77;;;;;;;;;;5052772;28;20021;-76
2024/03/27 07:14:01;;;;;;;18.17;12.00;;;;;;;;;;5052612;28;20021;-76
2024/03/27 07:16:27;;;;;;;16.58;11.13;;;;;;;;;;5052885;28;20059;-76
2024/03/27 07:18:53;;;;;;;15.90;10.80;;;;;;;;;;5054731;28;20104;-74
2024/03/27 07:21:20;;;;;;;17.92;12.43;;;;;;;;;;5053936;28;20049;-76
2024/03/27 07:23:46;;;;;;;19.23;13.02;;;;;;;;;;5054282;28;20025;-77
2024/03/27 07:26:12;;;;;;;19.95;13.35;;;;;;;;;;5054330;28;20076;-76
2024/03/27 07:28:38;;;;;;;22.08;13.57;;;;;;;;;;5052719;28;20437;-77
2024/03/27 07:31:04;;;;;;;20.60;13.70;;;;;;;;;;5052791;28;20476;-76
2024/03/27 07:33:30;;;;;;;16.73;11.20;;;;;;;;;;5054195;28;20043;-76
2024/03/27 07:35:56;;;;;;;21.85;14.93;;;;;;;;;;5052700;28;20116;-77
2024/03/27 07:38:23;;;;;;;18.42;13.25;;;;;;;;;;5052500;28;20472;-77
2024/03/27 07:40:49;;;;;;;21.85;15.93;;;;;;;;;;5053662;28;20017;-76
2024/03/27 07:43:15;;;;;;;24.05;17.42;;;;;;;;;;5053852;28;20028;-78
2024/03/27 07:45:42;;;;;;;22.95;16.25;;;;;;;;;;5053642;28;20036;-77
2024/03/27 07:48:08;;;;;;;25.15;17.92;;;;;;;;;;5052395;28;20017;-78
2024/03/27 07:50:35;;;;;;;28.70;19.77;;;;;;;;;;5053677;28;20523;-77
2024/03/27 07:53:01;;;;;;;21.45;15.60;;;;;;;;;;5053754;28;20033;-77
2024/03/27 07:55:27;;;;;;;20.85;15.10;;;;;;;;;;5052177;28;20028;-77
2024/03/27 07:57:53;;;;;;;23.02;15.15;;;;;;;;;;5053639;28;20048;-77
2024/03/27 08:00:19;;;;;;;22.20;15.07;;;;;;;;;;5053837;28;20017;-76
2024/03/27 08:02:45;;;;;;;22.90;15.63;;;;;;;;;;5051952;28;20024;-78
2024/03/27 08:05:11;;;;;;;24.33;15.45;;;;;;;;;;5052303;28;20029;-77
2024/03/27 08:07:37;;;;;;;23.17;15.30;;;;;;;;;;5051873;28;20021;-77
2024/03/27 08:10:03;;;;;;;20.65;14.27;;;;;;;;;;5052059;28;20495;-76
2024/03/27 08:12:30;;;;;;;20.20;14.10;;;;;;;;;;5053195;28;20025;-76
2024/03/27 08:14:57;;;;;;;29.60;18.38;;;;;;;;;;5053266;28;20056;-77
2024/03/27 08:17:23;;;;;;;22.98;15.13;;;;;;;;;;5052889;28;20469;-78
2024/03/27 08:19:49;;;;;;;27.00;17.20;;;;;;;;;;5051872;28;20056;-77
2024/03/27 08:22:15;;;;;;;20.20;13.82;;;;;;;;;;5052930;28;20045;-77
2024/03/27 08:24:44;;;;;;;24.00;16.13;;;;;;;;;;5051341;28;20552;-77
2024/03/27 08:27:10;;;;;;;20.23;14.25;;;;;;;;;;5052866;28;20138;-77
2024/03/27 08:29:36;;;;;;;22.85;16.27;;;;;;;;;;5051214;28;20040;-78
2024/03/27 08:32:02;;;;;;;26.85;17.52;;;;;;;;;;5051382;28;20477;-77
2024/03/27 08:34:28;;;;;;;25.58;17.50;;;;;;;;;;5052679;28;20108;-76
2024/03/27 08:36:55;;;;;;;27.05;19.70;;;;;;;;;;5052878;28;20098;-76
2024/03/27 08:39:21;;;;;;;28.90;20.17;;;;;;;;;;5051286;28;20025;-76
2024/03/27 08:41:48;;;;;;;32.20;21.17;;;;;;;;;;5052389;28;20087;-77
2024/03/27 08:44:17;;;;;;;26.00;20.52;;;;;;;;;;5051555;28;20115;-77
2024/03/27 08:46:43;;;;;;;32.60;22.55;;;;;;;;;;5051113;28;20029;-77
2024/03/27 08:49:13;;;;;;;26.38;19.67;;;;;;;;;;5051110;28;20029;-76
2024/03/27 08:51:39;;;;;;;30.13;21.77;;;;;;;;;;5052122;28;20032;-76
2024/03/27 08:54:05;;;;;;;31.52;22.08;;;;;;;;;;5051325;28;20028;-76
2024/03/27 08:56:32;;;;;;;28.85;21.42;;;;;;;;;;5048182;28;20032;-77
2024/03/27 08:58:58;;;;;;;32.17;23.27;;;;;;;;;;5044533;28;20044;-78
2024/03/27 09:01:24;;;;;;;32.08;23.90;;;;;;;;;;5032412;28;20417;-77
2024/03/27 09:03:50;;;;;;;34.00;24.13;;;;;;;;;;5031316;28;20033;-77
2024/03/27 09:06:16;;;;;;;33.40;24.40;;;;;;;;;;5031172;28;20025;-77
2024/03/27 09:08:42;;;;;;;32.47;23.70;;;;;;;;;;5031320;28;20079;-78
2024/03/27 09:11:09;;;;;;;33.78;23.83;;;;;;;;;;5032223;28;20022;-77
2024/03/27 09:13:35;;;;;;;29.33;21.92;;;;;;;;;;5032158;28;20059;-76
2024/03/27 09:16:03;;;;;;;34.20;23.67;;;;;;;;;;5032464;28;20029;-77
2024/03/27 09:18:29;;;;;;;29.98;21.48;;;;;;;;;;5032280;28;20017;-77
2024/03/27 09:20:55;;;;;;;31.15;22.50;;;;;;;;;;5038811;28;20124;-77
2024/03/27 09:23:22;;;;;;;25.55;19.30;;;;;;;;;;5050845;28;20037;-78
2024/03/27 09:25:59;;;;;;;32.00;23.80;;;;;;;;;;5050598;28;20203;-78
2024/03/27 09:28:25;;;;;;;28.00;20.73;;;;;;;;;;5048508;28;20469;-78
2024/03/27 09:30:51;;;;;;;31.02;20.13;;;;;;;;;;5035644;28;20032;-77
2024/03/27 09:33:18;;;;;;;31.38;22.48;;;;;;;;;;5030987;28;20025;-78
2024/03/27 09:35:44;;;;;;;28.02;19.50;;;;;;;;;;5031707;28;20057;-77
2024/03/27 09:38:10;;;;;;;28.90;20.23;;;;;;;;;;5030976;28;20021;-78
2024/03/27 09:40:40;;;;;;;27.70;20.95;;;;;;;;;;5030390;28;20033;-78
2024/03/27 09:43:07;;;;;;;27.80;21.25;;;;;;;;;;5030550;28;20029;-78
2024/03/27 09:45:33;;;;;;;30.45;21.38;;;;;;;;;;5030477;28;20126;-77
2024/03/27 09:47:59;;;;;;;26.88;19.77;;;;;;;;;;5031795;28;20017;-78
2024/03/27 09:50:26;;;;;;;27.27;18.67;;;;;;;;;;5030616;28;20025;-77
2024/03/27 09:52:52;;;;;;;31.10;19.02;;;;;;;;;;5030649;28;20044;-78
2024/03/27 09:55:19;;;;;;;26.35;19.13;;;;;;;;;;5030774;28;20457;-77
2024/03/27 09:57:45;;;;;;;25.55;17.25;;;;;;;;;;5030429;28;20603;-78
2024/03/27 10:00:11;;;;;;;25.15;18.83;;;;;;;;;;5040116;28;20021;-77
2024/03/27 10:02:38;;;;;;;24.73;17.63;;;;;;;;;;5047529;28;20037;-77
2024/03/27 10:05:05;;;;;;;24.67;17.98;;;;;;;;;;5050472;28;20107;-77
2024/03/27 10:07:31;;;;;;;25.13;18.88;;;;;;;;;;5050268;28;20043;-78
2024/03/27 10:09:57;;;;;;;25.20;17.65;;;;;;;;;;5049765;28;20021;-78
2024/03/27 10:12:23;;;;;;;27.85;17.88;;;;;;;;;;5046361;28;20495;-78
2024/03/27 10:14:49;;;;;;;25.13;18.08;;;;;;;;;;5051532;28;20061;-78
2024/03/27 10:17:17;;;;;;;22.05;15.35;;;;;;;;;;5050384;28;20048;-77
2024/03/27 10:19:43;;;;;;;17.75;12.68;;;;;;;;;;5050168;28;20397;-80
2024/03/27 10:22:09;;;;;;;22.85;14.00;;;;;;;;;;5050129;28;20392;-76
2024/03/27 10:24:35;;;;;;;20.42;13.00;;;;;;;;;;5050166;28;20063;-76
2024/03/27 10:27:02;;;;;;;22.30;12.57;;;;;;;;;;5050258;28;20021;-76
2024/03/27 10:29:28;;;;;;;23.67;13.05;;;;;;;;;;5050218;28;20090;-76
2024/03/27 10:31:56;;;;;;;15.35;10.55;;;;;;;;;;5051559;28;20025;-76
2024/03/27 10:34:22;;;;;;;16.98;9.77;;;;;;;;;;5051522;28;20029;-76
2024/03/27 10:36:52;;;;;;;12.23;7.35;;;;;;;;;;5050950;28;20032;-76
2024/03/27 10:39:21;;;;;;;16.80;8.45;;;;;;;;;;5049835;28;20032;-76
2024/03/27 10:41:47;;;;;;;12.93;8.55;;;;;;;;;;5054145;28;20025;-76
2024/03/27 10:44:14;;;;;;;13.73;8.45;;;;;;;;;;5055080;28;20036;-76
2024/03/27 10:46:41;;;;;;;13.25;8.60;;;;;;;;;;5054785;28;20020;-76
2024/03/27 10:49:07;;;;;;;13.40;8.10;;;;;;;;;;5055010;28;20067;-76
2024/03/27 10:51:33;;;;;;;15.23;8.55;;;;;;;;;;5053277;28;20170;-76
2024/03/27 10:54:00;;;;;;;15.13;8.85;;;;;;;;;;5054893;28;20020;-76
2024/03/27 10:56:26;;;;;;;15.23;8.65;;;;;;;;;;5053374;28;20036;-76
2024/03/27 10:58:53;;;;;;;10.85;6.85;;;;;;;;;;5035377;28;20037;-76
2024/03/27 11:01:20;;;;;;;11.93;8.07;;;;;;;;;;5034477;28;20604;-75
2024/03/27 11:03:49;;;;;;;14.68;8.73;;;;;;;;;;5034415;28;20025;-75
2024/03/27 11:06:17;;;;;;;14.48;8.68;;;;;;;;;;5037167;28;20025;-76
2024/03/27 11:08:44;;;;;;;18.15;10.30;;;;;;;;;;5043251;28;20022;-76
2024/03/27 11:11:11;;;;;;;17.35;9.07;;;;;;;;;;5038966;28;20036;-76
2024/03/27 11:13:37;;;;;;;14.57;8.30;;;;;;;;;;5052899;28;20025;-76
2024/03/27 11:16:09;;;;;;;17.10;9.48;;;;;;;;;;5054468;28;20025;-76
2024/03/27 11:18:35;;;;;;;15.35;9.52;;;;;;;;;;5052932;28;20025;-77
2024/03/27 11:21:02;;;;;;;16.00;10.57;;;;;;;;;;5052726;28;20045;-77
2024/03/27 11:23:29;;;;;;;18.15;9.95;;;;;;;;;;5054153;28;20487;-76
2024/03/27 11:25:55;;;;;;;15.23;9.43;;;;;;;;;;5053728;28;20048;-75
2024/03/27 11:28:21;;;;;;;42.30;10.60;;;;;;;;;;5054264;28;20025;-76
2024/03/27 11:30:48;;;;;;;14.85;8.90;;;;;;;;;;5053922;28;20024;-77
2024/03/27 11:33:14;;;;;;;17.23;8.40;;;;;;;;;;5052741;28;20039;-77
2024/03/27 11:35:40;;;;;;;12.65;7.55;;;;;;;;;;5053816;28;20021;-77
2024/03/27 11:38:07;;;;;;;15.00;7.60;;;;;;;;;;5054188;28;20060;-76
2024/03/27 11:40:33;;;;;;;15.18;8.48;;;;;;;;;;5052659;28;20056;-76
2024/03/27 11:43:02;;;;;;;11.38;6.15;;;;;;;;;;5052168;28;20033;-75
2024/03/27 11:45:28;;;;;;;14.07;6.90;;;;;;;;;;5052587;28;20027;-77
2024/03/27 11:47:56;;;;;;;10.52;6.65;;;;;;;;;;5051919;28;20082;-76
2024/03/27 11:50:22;;;;;;;12.35;6.78;;;;;;;;;;5052497;28;20024;-77
2024/03/27 11:52:49;;;;;;;11.93;6.45;;;;;;;;;;5051395;28;20032;-75
2024/03/27 11:55:15;;;;;;;7.32;3.97;;;;;;;;;;5053642;28;20025;-75
2024/03/27 11:57:41;;;;;;;12.65;7.18;;;;;;;;;;5052022;28;20029;-75
2024/03/27 12:00:10;;;;;;;11.65;6.78;;;;;;;;;;5052270;28;20086;-76
2024/03/27 12:02:36;;;;;;;14.25;6.97;;;;;;;;;;5051779;28;20029;-76
2024/03/27 12:05:04;;;;;;;13.00;7.45;;;;;;;;;;5052055;28;20108;-76
2024/03/27 12:07:31;;;;;;;9.60;6.10;;;;;;;;;;5053306;28;20475;-77
2024/03/27 12:09:57;;;;;;;10.80;6.82;;;;;;;;;;5051844;28;20025;-77
2024/03/27 12:12:26;;;;;;;11.13;6.35;;;;;;;;;;5052077;28;20496;-78
2024/03/27 12:14:53;;;;;;;8.88;6.25;;;;;;;;;;5051841;28;20025;-77
2024/03/27 12:17:20;;;;;;;11.63;7.00;;;;;;;;;;5053328;28;20108;-76
2024/03/27 12:19:53;;;;;;;12.88;7.25;;;;;;;;;;5051749;28;20473;-77
2024/03/27 12:22:19;;;;;;;9.25;5.93;;;;;;;;;;5051639;28;20071;-75
2024/03/27 12:24:46;;;;;;;13.35;7.88;;;;;;;;;;5052931;28;20021;-77
2024/03/27 12:27:12;;;;;;;10.52;6.10;;;;;;;;;;5052929;28;20389;-76
2024/03/27 12:29:38;;;;;;;19.17;9.27;;;;;;;;;;5051449;28;20021;-76
2024/03/27 12:32:05;;;;;;;12.02;6.90;;;;;;;;;;5051652;28;20091;-77
2024/03/27 12:34:34;;;;;;;11.13;6.75;;;;;;;;;;5051570;28;20499;-77
2024/03/27 12:37:02;;;;;;;12.50;7.28;;;;;;;;;;5051418;28;20377;-76
2024/03/27 12:39:28;;;;;;;10.68;6.00;;;;;;;;;;5051503;28;20411;-77
2024/03/27 12:41:54;;;;;;;8.35;5.68;;;;;;;;;;5052811;28;20040;-77
2024/03/27 12:44:20;;;;;;;9.60;5.82;;;;;;;;;;5051452;28;20142;-77
2024/03/27 12:46:46;;;;;;;8.50;4.93;;;;;;;;;;5051253;28;20029;-76
2024/03/27 12:49:12;;;;;;;12.20;5.75;;;;;;;;;;5051419;28;20033;-76
2024/03/27 12:51:38;;;;;;;9.60;5.60;;;;;;;;;;5052959;28;20139;-77
2024/03/27 12:54:04;;;;;;;10.95;6.15;;;;;;;;;;5051338;28;20052;-77
2024/03/27 12:56:30;;;;;;;11.73;6.72;;;;;;;;;;5051280;28;20155;-77
2024/03/27 12:58:56;;;;;;;10.27;6.88;;;;;;;;;;5050996;28;20479;-76
2024/03/27 13:01:22;;;;;;;11.43;6.28;;;;;;;;;;5052835;28;20017;-75
2024/03/27 13:03:48;;;;;;;10.05;6.53;;;;;;;;;;5050066;28;20057;-76
2024/03/27 13:06:14;;;;;;;9.75;6.85;;;;;;;;;;5051136;28;20106;-77
2024/03/27 13:08:40;;;;;;;9.63;6.50;;;;;;;;;;5051975;28;20110;-77
2024/03/27 13:11:06;;;;;;;10.98;6.32;;;;;;;;;;5050957;28;20438;-75
2024/03/27 13:13:32;;;;;;;11.05;6.85;;;;;;;;;;5052698;28;20465;-77
2024/03/27 13:15:59;;;;;;;8.95;6.75;;;;;;;;;;5051866;28;20132;-76
2024/03/27 13:18:26;;;;;;;9.40;5.90;;;;;;;;;;5052412;28;20017;-77
2024/03/27 13:20:52;;;;;;;10.85;7.85;;;;;;;;;;5051893;28;20041;-77
2024/03/27 13:23:18;;;;;;;11.88;8.20;;;;;;;;;;5050938;28;20120;-77
2024/03/27 13:25:44;;;;;;;13.95;7.75;;;;;;;;;;5050748;28;20208;-77
2024/03/27 13:28:10;;;;;;;11.18;7.57;;;;;;;;;;5052490;28;20417;-76
2024/03/27 13:30:36;;;;;;;12.65;7.40;;;;;;;;;;5050745;28;20025;-76
2024/03/27 13:33:02;;;;;;;14.10;8.23;;;;;;;;;;5050677;28;20029;-77
2024/03/27 13:35:28;;;;;;;11.05;7.70;;;;;;;;;;5052226;28;20029;-77
2024/03/27 13:37:54;;;;;;;10.77;7.60;;;;;;;;;;5051785;28;20108;-77
2024/03/27 13:40:20;;;;;;;11.60;7.47;;;;;;;;;;5052290;28;20024;-75
2024/03/27 13:42:47;;;;;;;12.57;7.78;;;;;;;;;;5051282;28;20037;-79
2024/03/27 13:45:13;;;;;;;10.02;7.20;;;;;;;;;;5050378;28;20283;-78
2024/03/27 13:47:39;;;;;;;12.68;8.02;;;;;;;;;;5050032;28;20068;-79
2024/03/27 13:50:05;;;;;;;11.35;7.95;;;;;;;;;;5052071;28;20181;-78
2024/03/27 13:52:31;;;;;;;10.18;7.07;;;;;;;;;;5050460;28;20029;-78
2024/03/27 13:54:57;;;;;;;13.50;8.05;;;;;;;;;;5050050;28;20065;-78
2024/03/27 13:57:23;;;;;;;10.35;7.47;;;;;;;;;;5050637;28;20029;-79
2024/03/27 13:59:49;;;;;;;11.55;7.78;;;;;;;;;;5050242;28;20021;-79
2024/03/27 14:02:16;;;;;;;11.93;8.57;;;;;;;;;;5050280;28;20040;-78
2024/03/27 14:04:43;;;;;;;9.82;7.65;;;;;;;;;;5050431;28;20025;-79
2024/03/27 14:07:09;;;;;;;11.75;7.60;;;;;;;;;;5050359;28;20086;-78
2024/03/27 14:09:35;;;;;;;12.15;8.30;;;;;;;;;;5050100;28;20057;-78
2024/03/27 14:12:02;;;;;;;12.98;8.77;;;;;;;;;;5049797;28;20040;-78
2024/03/27 14:14:28;;;;;;;12.05;9.07;;;;;;;;;;5051639;28;20021;-79
2024/03/27 14:16:54;;;;;;;12.88;9.35;;;;;;;;;;5053344;28;20052;-78
2024/03/27 14:19:20;;;;;;;14.07;9.77;;;;;;;;;;5054089;28;20025;-79
2024/03/27 14:21:47;;;;;;;12.20;9.55;;;;;;;;;;5054659;28;20056;-79
2024/03/27 14:24:14;;;;;;;12.57;9.63;;;;;;;;;;5054023;28;20056;-78
2024/03/27 14:26:40;;;;;;;13.75;10.02;;;;;;;;;;5053968;28;20031;-77